<?xml version="1.0" encoding="UTF-8" standalone="no" ?>
<gpx xmlns="http://www.topografix.com/GPX/1/1" xmlns:xsi="http://www.w3.org/2001/XMLSchema-instance" xsi:schemaLocation="http://www.topografix.com/GPX/1/1 http://www.topografix.com/GPX/1/1/gpx.xsd" version="1.1" creator="VisuGPX - https://www.visugpx.com">
  <metadata>
    <name>Toutes traces 4x4 Côté Brindas</name>
  </metadata>
  <trk>
    <name><![CDATA[Yzeron]]></name>
    <extensions>
      <line xmlns="http://www.topografix.com/GPX/gpx_style/0/2">
        <color>008800</color>
        <width>4</width>
      </line>
    </extensions>
    <trkseg>
      <trkpt lat="45.72302" lon="4.59341">
        <ele>831.881</ele>
        <time>2021-05-25T18:28:12Z</time>
      </trkpt>
      <trkpt lat="45.72302" lon="4.59341">
        <ele>831.881</ele>
        <time>2021-05-25T18:28:12Z</time>
      </trkpt>
      <trkpt lat="45.72306" lon="4.59348">
        <ele>831.861</ele>
        <time>2021-05-25T18:28:14Z</time>
      </trkpt>
      <trkpt lat="45.72312" lon="4.59357">
        <ele>832.017</ele>
        <time>2021-05-25T18:28:16Z</time>
      </trkpt>
      <trkpt lat="45.72315" lon="4.59362">
        <ele>832.308</ele>
        <time>2021-05-25T18:28:17Z</time>
      </trkpt>
      <trkpt lat="45.72318" lon="4.59367">
        <ele>832.815</ele>
        <time>2021-05-25T18:28:18Z</time>
      </trkpt>
      <trkpt lat="45.72321" lon="4.59371">
        <ele>833.342</ele>
        <time>2021-05-25T18:28:19Z</time>
      </trkpt>
      <trkpt lat="45.72326" lon="4.59376">
        <ele>833.538</ele>
        <time>2021-05-25T18:28:20Z</time>
      </trkpt>
      <trkpt lat="45.7233" lon="4.59381">
        <ele>833.992</ele>
        <time>2021-05-25T18:28:21Z</time>
      </trkpt>
      <trkpt lat="45.72334" lon="4.59386">
        <ele>834.332</ele>
        <time>2021-05-25T18:28:22Z</time>
      </trkpt>
      <trkpt lat="45.72339" lon="4.59392">
        <ele>834.719</ele>
        <time>2021-05-25T18:28:23Z</time>
      </trkpt>
      <trkpt lat="45.72344" lon="4.59398">
        <ele>835.248</ele>
        <time>2021-05-25T18:28:24Z</time>
      </trkpt>
      <trkpt lat="45.7235" lon="4.59406">
        <ele>835.747</ele>
        <time>2021-05-25T18:28:25Z</time>
      </trkpt>
      <trkpt lat="45.72355" lon="4.59413">
        <ele>836.217</ele>
        <time>2021-05-25T18:28:26Z</time>
      </trkpt>
      <trkpt lat="45.72361" lon="4.59422">
        <ele>837.087</ele>
        <time>2021-05-25T18:28:27Z</time>
      </trkpt>
      <trkpt lat="45.72366" lon="4.59431">
        <ele>837.715</ele>
        <time>2021-05-25T18:28:28Z</time>
      </trkpt>
      <trkpt lat="45.7237" lon="4.59438">
        <ele>838.308</ele>
        <time>2021-05-25T18:28:29Z</time>
      </trkpt>
      <trkpt lat="45.72374" lon="4.59443">
        <ele>838.998</ele>
        <time>2021-05-25T18:28:30Z</time>
      </trkpt>
      <trkpt lat="45.7238" lon="4.59445">
        <ele>839.985</ele>
        <time>2021-05-25T18:28:32Z</time>
      </trkpt>
      <trkpt lat="45.72385" lon="4.59443">
        <ele>840.921</ele>
        <time>2021-05-25T18:28:38Z</time>
      </trkpt>
      <trkpt lat="45.72394" lon="4.5944">
        <ele>840.865</ele>
        <time>2021-05-25T18:28:40Z</time>
      </trkpt>
      <trkpt lat="45.72401" lon="4.59439">
        <ele>840.815</ele>
        <time>2021-05-25T18:28:41Z</time>
      </trkpt>
      <trkpt lat="45.72408" lon="4.59438">
        <ele>840.812</ele>
        <time>2021-05-25T18:28:42Z</time>
      </trkpt>
      <trkpt lat="45.72416" lon="4.59436">
        <ele>840.981</ele>
        <time>2021-05-25T18:28:43Z</time>
      </trkpt>
      <trkpt lat="45.72426" lon="4.59434">
        <ele>841.23</ele>
        <time>2021-05-25T18:28:44Z</time>
      </trkpt>
      <trkpt lat="45.72436" lon="4.59432">
        <ele>841.523</ele>
        <time>2021-05-25T18:28:45Z</time>
      </trkpt>
      <trkpt lat="45.72446" lon="4.59429">
        <ele>841.883</ele>
        <time>2021-05-25T18:28:46Z</time>
      </trkpt>
      <trkpt lat="45.72456" lon="4.59427">
        <ele>842.011</ele>
        <time>2021-05-25T18:28:47Z</time>
      </trkpt>
      <trkpt lat="45.72465" lon="4.59424">
        <ele>842.008</ele>
        <time>2021-05-25T18:28:48Z</time>
      </trkpt>
      <trkpt lat="45.72475" lon="4.5942">
        <ele>842.039</ele>
        <time>2021-05-25T18:28:49Z</time>
      </trkpt>
      <trkpt lat="45.72483" lon="4.59417">
        <ele>841.856</ele>
        <time>2021-05-25T18:28:50Z</time>
      </trkpt>
      <trkpt lat="45.72491" lon="4.59415">
        <ele>841.562</ele>
        <time>2021-05-25T18:28:51Z</time>
      </trkpt>
      <trkpt lat="45.725" lon="4.59412">
        <ele>841.266</ele>
        <time>2021-05-25T18:28:52Z</time>
      </trkpt>
      <trkpt lat="45.72511" lon="4.5941">
        <ele>841.236</ele>
        <time>2021-05-25T18:28:53Z</time>
      </trkpt>
      <trkpt lat="45.72523" lon="4.5941">
        <ele>841.583</ele>
        <time>2021-05-25T18:28:54Z</time>
      </trkpt>
      <trkpt lat="45.72533" lon="4.59411">
        <ele>842.042</ele>
        <time>2021-05-25T18:28:55Z</time>
      </trkpt>
      <trkpt lat="45.72542" lon="4.59412">
        <ele>842.691</ele>
        <time>2021-05-25T18:28:56Z</time>
      </trkpt>
      <trkpt lat="45.72552" lon="4.59412">
        <ele>843.321</ele>
        <time>2021-05-25T18:28:57Z</time>
      </trkpt>
      <trkpt lat="45.72561" lon="4.59412">
        <ele>844.241</ele>
        <time>2021-05-25T18:28:58Z</time>
      </trkpt>
      <trkpt lat="45.72569" lon="4.59412">
        <ele>844.705</ele>
        <time>2021-05-25T18:28:59Z</time>
      </trkpt>
      <trkpt lat="45.72577" lon="4.59412">
        <ele>845.008</ele>
        <time>2021-05-25T18:29:00Z</time>
      </trkpt>
      <trkpt lat="45.72583" lon="4.59411">
        <ele>845.489</ele>
        <time>2021-05-25T18:29:01Z</time>
      </trkpt>
      <trkpt lat="45.72589" lon="4.59412">
        <ele>845.816</ele>
        <time>2021-05-25T18:29:02Z</time>
      </trkpt>
      <trkpt lat="45.72596" lon="4.59411">
        <ele>846.052</ele>
        <time>2021-05-25T18:29:04Z</time>
      </trkpt>
      <trkpt lat="45.726" lon="4.5941">
        <ele>846.486</ele>
        <time>2021-05-25T18:29:06Z</time>
      </trkpt>
      <trkpt lat="45.72606" lon="4.5941">
        <ele>846.616</ele>
        <time>2021-05-25T18:29:07Z</time>
      </trkpt>
      <trkpt lat="45.72612" lon="4.59414">
        <ele>847.113</ele>
        <time>2021-05-25T18:29:09Z</time>
      </trkpt>
      <trkpt lat="45.72617" lon="4.59419">
        <ele>847.792</ele>
        <time>2021-05-25T18:29:11Z</time>
      </trkpt>
      <trkpt lat="45.7262" lon="4.59424">
        <ele>848.571</ele>
        <time>2021-05-25T18:29:13Z</time>
      </trkpt>
      <trkpt lat="45.72623" lon="4.59431">
        <ele>849.946</ele>
        <time>2021-05-25T18:29:16Z</time>
      </trkpt>
      <trkpt lat="45.72628" lon="4.5944">
        <ele>851.288</ele>
        <time>2021-05-25T18:29:19Z</time>
      </trkpt>
      <trkpt lat="45.72633" lon="4.59447">
        <ele>852.916</ele>
        <time>2021-05-25T18:29:23Z</time>
      </trkpt>
      <trkpt lat="45.72636" lon="4.59453">
        <ele>854.308</ele>
        <time>2021-05-25T18:29:25Z</time>
      </trkpt>
      <trkpt lat="45.72639" lon="4.59459">
        <ele>855.751</ele>
        <time>2021-05-25T18:29:28Z</time>
      </trkpt>
      <trkpt lat="45.72644" lon="4.59462">
        <ele>856.448</ele>
        <time>2021-05-25T18:29:30Z</time>
      </trkpt>
      <trkpt lat="45.72649" lon="4.59464">
        <ele>856.914</ele>
        <time>2021-05-25T18:29:32Z</time>
      </trkpt>
      <trkpt lat="45.72655" lon="4.59468">
        <ele>857.358</ele>
        <time>2021-05-25T18:29:34Z</time>
      </trkpt>
      <trkpt lat="45.7266" lon="4.59472">
        <ele>857.548</ele>
        <time>2021-05-25T18:29:35Z</time>
      </trkpt>
      <trkpt lat="45.72665" lon="4.59476">
        <ele>857.745</ele>
        <time>2021-05-25T18:29:36Z</time>
      </trkpt>
      <trkpt lat="45.7267" lon="4.5948">
        <ele>857.924</ele>
        <time>2021-05-25T18:29:37Z</time>
      </trkpt>
      <trkpt lat="45.72674" lon="4.59483">
        <ele>858.143</ele>
        <time>2021-05-25T18:29:38Z</time>
      </trkpt>
      <trkpt lat="45.7268" lon="4.59488">
        <ele>858.652</ele>
        <time>2021-05-25T18:29:40Z</time>
      </trkpt>
      <trkpt lat="45.72686" lon="4.59492">
        <ele>859.053</ele>
        <time>2021-05-25T18:29:42Z</time>
      </trkpt>
      <trkpt lat="45.72693" lon="4.59501">
        <ele>859.408</ele>
        <time>2021-05-25T18:29:44Z</time>
      </trkpt>
      <trkpt lat="45.72696" lon="4.59506">
        <ele>860.008</ele>
        <time>2021-05-25T18:29:47Z</time>
      </trkpt>
      <trkpt lat="45.72704" lon="4.59512">
        <ele>861.092</ele>
        <time>2021-05-25T18:29:50Z</time>
      </trkpt>
      <trkpt lat="45.7271" lon="4.59516">
        <ele>861.819</ele>
        <time>2021-05-25T18:29:52Z</time>
      </trkpt>
      <trkpt lat="45.72714" lon="4.59527">
        <ele>863.555</ele>
        <time>2021-05-25T18:29:55Z</time>
      </trkpt>
      <trkpt lat="45.72719" lon="4.59535">
        <ele>865.029</ele>
        <time>2021-05-25T18:29:57Z</time>
      </trkpt>
      <trkpt lat="45.72725" lon="4.59541">
        <ele>865.719</ele>
        <time>2021-05-25T18:29:58Z</time>
      </trkpt>
      <trkpt lat="45.7273" lon="4.59546">
        <ele>866.316</ele>
        <time>2021-05-25T18:29:59Z</time>
      </trkpt>
      <trkpt lat="45.72734" lon="4.5955">
        <ele>866.855</ele>
        <time>2021-05-25T18:30:00Z</time>
      </trkpt>
      <trkpt lat="45.72738" lon="4.59555">
        <ele>867.164</ele>
        <time>2021-05-25T18:30:01Z</time>
      </trkpt>
      <trkpt lat="45.72761" lon="4.59584">
        <ele>867.378</ele>
        <time>2021-05-25T18:30:02Z</time>
      </trkpt>
      <trkpt lat="45.72765" lon="4.59588">
        <ele>867.433</ele>
        <time>2021-05-25T18:30:03Z</time>
      </trkpt>
      <trkpt lat="45.72768" lon="4.59593">
        <ele>867.526</ele>
        <time>2021-05-25T18:30:04Z</time>
      </trkpt>
      <trkpt lat="45.72772" lon="4.59599">
        <ele>867.608</ele>
        <time>2021-05-25T18:30:05Z</time>
      </trkpt>
      <trkpt lat="45.72775" lon="4.59605">
        <ele>867.764</ele>
        <time>2021-05-25T18:30:06Z</time>
      </trkpt>
      <trkpt lat="45.72777" lon="4.59621">
        <ele>868.391</ele>
        <time>2021-05-25T18:30:08Z</time>
      </trkpt>
      <trkpt lat="45.7278" lon="4.59631">
        <ele>868.987</ele>
        <time>2021-05-25T18:30:09Z</time>
      </trkpt>
      <trkpt lat="45.72781" lon="4.59639">
        <ele>869.611</ele>
        <time>2021-05-25T18:30:10Z</time>
      </trkpt>
      <trkpt lat="45.72781" lon="4.59647">
        <ele>871.321</ele>
        <time>2021-05-25T18:30:12Z</time>
      </trkpt>
      <trkpt lat="45.72781" lon="4.59654">
        <ele>873.828</ele>
        <time>2021-05-25T18:30:23Z</time>
      </trkpt>
      <trkpt lat="45.72778" lon="4.59659">
        <ele>874.747</ele>
        <time>2021-05-25T18:30:26Z</time>
      </trkpt>
      <trkpt lat="45.72774" lon="4.59664">
        <ele>876.096</ele>
        <time>2021-05-25T18:30:29Z</time>
      </trkpt>
      <trkpt lat="45.72769" lon="4.5967">
        <ele>877.456</ele>
        <time>2021-05-25T18:30:32Z</time>
      </trkpt>
      <trkpt lat="45.72765" lon="4.59677">
        <ele>878.759</ele>
        <time>2021-05-25T18:30:35Z</time>
      </trkpt>
      <trkpt lat="45.7276" lon="4.59683">
        <ele>879.614</ele>
        <time>2021-05-25T18:30:37Z</time>
      </trkpt>
      <trkpt lat="45.72756" lon="4.5969">
        <ele>880.808</ele>
        <time>2021-05-25T18:30:39Z</time>
      </trkpt>
      <trkpt lat="45.72752" lon="4.59696">
        <ele>882.232</ele>
        <time>2021-05-25T18:30:41Z</time>
      </trkpt>
      <trkpt lat="45.72748" lon="4.597">
        <ele>883.899</ele>
        <time>2021-05-25T18:30:44Z</time>
      </trkpt>
    </trkseg>
  </trk>
</gpx>